Time;durP1;ratioP1;P1;durP2;ratioP2;P2;SDS_P1;SDS_P2;PMS_P1;PMS_P2;Temp;Humidity;BMP_temperature;BMP_pressure;BME280_temperature;BME280_humidity;BME280_pressure;Samples;Min_cycle;Max_cycle;Signal;HPM_P1;HPM_P2
2021/05/10 00:00:06;;;;;;;2.97;2.73;;;18.30;96.20;;;;;;5012874;28;20414;-72
2021/05/10 00:02:32;;;;;;;3.30;3.00;;;18.30;96.70;;;;;;5013256;28;20254;-72
2021/05/10 00:04:57;;;;;;;3.23;2.80;;;18.40;97.20;;;;;;5013014;28;20513;-71
2021/05/10 00:07:23;;;;;;;3.70;3.40;;;18.40;97.70;;;;;;5013010;28;20249;-72
2021/05/10 00:09:48;;;;;;;2.90;2.70;;;18.40;98.20;;;;;;5012837;28;20229;-72
2021/05/10 00:12:14;;;;;;;3.13;2.93;;;18.40;98.30;;;;;;5012944;28;20293;-72
2021/05/10 00:14:42;;;;;;;3.27;2.97;;;18.40;98.60;;;;;;5012807;28;20257;-71
2021/05/10 00:17:08;;;;;;;2.80;2.60;;;18.50;98.70;;;;;;5012723;28;20641;-71
2021/05/10 00:19:34;;;;;;;4.17;3.30;;;18.50;99.10;;;;;;5012516;28;20441;-71
2021/05/10 00:22:01;;;;;;;3.30;3.00;;;18.50;98.40;;;;;;5012835;28;20178;-72
2021/05/10 00:24:27;;;;;;;3.00;2.80;;;18.50;99.90;;;;;;5012722;28;20417;-72
2021/05/10 00:26:52;;;;;;;3.30;3.00;;;18.40;99.90;;;;;;5012578;28;20819;-72
2021/05/10 00:29:19;;;;;;;3.83;3.57;;;18.40;99.90;;;;;;5011096;28;20426;-72
2021/05/10 00:31:45;;;;;;;3.30;3.00;;;18.30;99.90;;;;;;5012614;28;20171;-72
2021/05/10 00:34:11;;;;;;;3.40;3.10;;;18.30;99.90;;;;;;5012423;28;20791;-71
2021/05/10 00:36:37;;;;;;;3.13;2.90;;;18.10;99.90;;;;;;5012278;28;20484;-72
2021/05/10 00:39:04;;;;;;;3.30;3.07;;;18.00;99.90;;;;;;5012031;28;20414;-71
2021/05/10 00:41:30;;;;;;;3.60;3.30;;;17.90;99.90;;;;;;5012244;28;20167;-71
2021/05/10 00:43:55;;;;;;;3.57;3.30;;;17.70;99.90;;;;;;5012372;28;20429;-72
2021/05/10 00:46:21;;;;;;;4.17;2.80;;;17.60;99.90;;;;;;5012261;28;20207;-72
2021/05/10 00:48:46;;;;;;;4.17;3.37;;;17.50;99.90;;;;;;5012302;28;20189;-72
2021/05/10 00:51:12;;;;;;;3.50;3.20;;;17.40;99.90;;;;;;5011242;28;20178;-72
2021/05/10 00:53:37;;;;;;;5.40;5.00;;;17.20;99.90;;;;;;5012260;28;20194;-72
2021/05/10 00:56:03;;;;;;;4.30;3.77;;;17.10;99.90;;;;;;5012016;28;20651;-71
2021/05/10 00:58:29;;;;;;;2.70;2.50;;;17.10;99.90;;;;;;5010823;28;20175;-71
2021/05/10 01:00:55;;;;;;;2.83;2.53;;;17.00;99.90;;;;;;5011778;28;20410;-71
2021/05/10 01:03:20;;;;;;;3.50;3.20;;;17.00;99.90;;;;;;5012083;28;20509;-72
2021/05/10 01:05:46;;;;;;;3.70;3.00;;;16.90;99.90;;;;;;5012061;28;20171;-72
2021/05/10 01:08:12;;;;;;;2.53;2.40;;;16.90;99.90;;;;;;5012046;28;20183;-71
2021/05/10 01:10:37;;;;;;;3.20;3.00;;;16.90;99.90;;;;;;5011690;28;20194;-72
2021/05/10 01:13:03;;;;;;;3.10;2.90;;;16.80;99.90;;;;;;5010744;28;20167;-72
2021/05/10 01:15:32;;;;;;;2.80;2.60;;;16.80;99.90;;;;;;5011940;28;20229;-71
2021/05/10 01:17:58;;;;;;;2.90;2.70;;;16.90;99.90;;;;;;5011919;28;20545;-72
2021/05/10 01:20:25;;;;;;;3.20;2.80;;;16.90;99.90;;;;;;5011905;28;20987;-71
2021/05/10 01:22:56;;;;;;;3.40;3.20;;;16.90;99.90;;;;;;5012100;28;20441;-72
2021/05/10 01:25:24;;;;;;;3.23;3.00;;;16.90;99.90;;;;;;5011825;28;20414;-71
2021/05/10 01:27:51;;;;;;;2.73;2.53;;;16.90;99.90;;;;;;5011765;28;20442;-71
2021/05/10 01:30:31;;;;;;;3.20;3.00;;;16.90;99.90;;;;;;5010208;28;20495;-71
2021/05/10 01:32:58;;;;;;;3.20;3.00;;;17.00;99.90;;;;;;5011584;28;20418;-71
2021/05/10 01:35:27;;;;;;;4.17;3.10;;;17.00;99.90;;;;;;5011552;28;20426;-72
2021/05/10 01:37:52;;;;;;;3.40;3.10;;;16.90;99.90;;;;;;5011318;28;20473;-72
2021/05/10 01:40:18;;;;;;;3.63;3.33;;;16.90;99.90;;;;;;5011228;28;20418;-71
2021/05/10 01:42:44;;;;;;;3.43;3.20;;;16.90;99.90;;;;;;5011748;28;20171;-71
2021/05/10 01:45:10;;;;;;;3.63;3.33;;;16.90;99.90;;;;;;5011355;28;20539;-71
2021/05/10 01:47:36;;;;;;;2.87;2.67;;;16.90;99.90;;;;;;5011220;28;20206;-72
2021/05/10 01:50:15;;;;;;;2.77;2.50;;;16.90;99.90;;;;;;5011452;28;20414;-72
2021/05/10 01:52:41;;;;;;;3.17;2.97;;;16.80;99.90;;;;;;5011576;28;20496;-72
2021/05/10 01:55:08;;;;;;;3.70;3.40;;;16.80;99.90;;;;;;5011726;28;20428;-72
2021/05/10 01:57:35;;;;;;;5.27;3.70;;;16.70;99.90;;;;;;5011147;28;20213;-72
2021/05/10 02:00:00;;;;;;;3.70;3.40;;;16.60;99.90;;;;;;5010866;28;20445;-72
2021/05/10 02:02:26;;;;;;;3.50;3.20;;;16.60;99.90;;;;;;5009965;28;20430;-72
2021/05/10 02:05:19;;;;;;;3.67;3.37;;;16.60;99.90;;;;;;5011151;28;20593;-71
2021/05/10 02:07:50;;;;;;;3.80;3.50;;;16.60;99.90;;;;;;5010794;28;20557;-71
2021/05/10 02:10:18;;;;;;;3.80;3.17;;;16.50;99.90;;;;;;5010953;28;20576;-71
2021/05/10 02:13:07;;;;;;;3.60;3.33;;;16.60;99.90;;;;;;5009859;28;20425;-72
2021/05/10 02:15:34;;;;;;;3.50;3.20;;;16.70;99.90;;;;;;5012438;28;20479;-72
2021/05/10 02:18:00;;;;;;;4.97;3.40;;;16.70;99.90;;;;;;5012314;28;20979;-72
2021/05/10 02:20:27;;;;;;;3.03;2.83;;;16.70;99.90;;;;;;5011719;28;20418;-72
2021/05/10 02:23:00;;;;;;;3.10;2.90;;;16.50;99.90;;;;;;5012449;28;20829;-72
2021/05/10 02:25:29;;;;;;;3.20;2.90;;;16.40;99.90;;;;;;5012046;28;20418;-71
2021/05/10 02:27:54;;;;;;;3.70;3.40;;;16.40;99.90;;;;;;5012407;28;20468;-72
2021/05/10 02:30:23;;;;;;;3.70;3.50;;;16.30;99.90;;;;;;5010476;28;20942;-72
2021/05/10 02:32:49;;;;;;;3.83;3.53;;;16.40;99.90;;;;;;5010423;28;20310;-72
2021/05/10 02:35:15;;;;;;;3.80;3.50;;;16.30;99.90;;;;;;5011870;28;20491;-72
2021/05/10 02:37:42;;;;;;;3.77;3.47;;;16.30;99.90;;;;;;5010950;28;20469;-71
2021/05/10 02:40:09;;;;;;;3.83;3.53;;;16.40;99.90;;;;;;5010480;28;20430;-71
2021/05/10 02:42:35;;;;;;;4.60;4.20;;;16.40;99.90;;;;;;5009431;28;20429;-71
2021/05/10 02:45:01;;;;;;;3.67;3.13;;;16.40;99.90;;;;;;5010787;28;20781;-72
2021/05/10 02:47:26;;;;;;;3.90;3.60;;;16.50;99.90;;;;;;5009279;28;20336;-72
2021/05/10 02:49:53;;;;;;;7.17;4.47;;;16.40;99.90;;;;;;5010541;28;20528;-72
2021/05/10 02:52:19;;;;;;;3.73;3.43;;;16.30;99.90;;;;;;5010720;28;20479;-72
2021/05/10 02:54:45;;;;;;;3.57;3.37;;;16.40;99.90;;;;;;5010621;28;20422;-72
2021/05/10 02:57:10;;;;;;;3.70;3.30;;;16.30;99.90;;;;;;5009214;28;20218;-72
2021/05/10 02:59:36;;;;;;;5.57;3.80;;;16.30;99.90;;;;;;5010378;28;20673;-72
2021/05/10 03:02:01;;;;;;;3.90;3.50;;;16.30;99.90;;;;;;5010970;28;20642;-72
2021/05/10 03:04:27;;;;;;;5.63;3.93;;;16.20;99.90;;;;;;5014199;28;20179;-72
2021/05/10 03:06:52;;;;;;;6.67;3.50;;;16.20;99.90;;;;;;5014167;28;20195;-71
2021/05/10 03:09:18;;;;;;;3.33;3.13;;;16.20;99.90;;;;;;5013843;28;20275;-72
2021/05/10 03:11:44;;;;;;;4.50;3.80;;;16.20;99.90;;;;;;5014133;28;20660;-71
2021/05/10 03:14:10;;;;;;;3.80;3.50;;;16.20;99.90;;;;;;5014127;28;20642;-71
2021/05/10 03:16:35;;;;;;;3.93;3.43;;;16.20;99.90;;;;;;5014112;28;20265;-71
2021/05/10 03:19:03;;;;;;;3.63;3.20;;;16.20;99.90;;;;;;5013802;28;20254;-72
2021/05/10 03:21:28;;;;;;;3.90;3.50;;;16.10;99.90;;;;;;5013887;28;20175;-71
2021/05/10 03:23:54;;;;;;;3.70;3.40;;;16.10;99.90;;;;;;5013960;28;20444;-72
2021/05/10 03:26:19;;;;;;;4.83;3.63;;;16.10;99.90;;;;;;5013824;28;20214;-72
2021/05/10 03:28:45;;;;;;;3.10;2.90;;;16.10;99.90;;;;;;5013895;28;20197;-71
2021/05/10 03:31:10;;;;;;;3.40;3.10;;;16.00;99.90;;;;;;5013566;28;20182;-72
2021/05/10 03:33:36;;;;;;;6.53;3.27;;;16.00;99.90;;;;;;5012475;28;20190;-72
2021/05/10 03:36:02;;;;;;;2.80;2.60;;;16.10;99.90;;;;;;5013502;28;20181;-70
2021/05/10 03:38:28;;;;;;;3.30;3.00;;;16.20;99.90;;;;;;5013617;28;20233;-71
2021/05/10 03:40:53;;;;;;;3.43;3.13;;;16.30;99.90;;;;;;5013443;28;20422;-71
2021/05/10 03:43:19;;;;;;;3.07;2.80;;;16.40;99.90;;;;;;5013555;28;20171;-71
2021/05/10 03:45:44;;;;;;;3.20;2.90;;;16.40;99.90;;;;;;5013494;28;20175;-72
2021/05/10 03:48:10;;;;;;;4.40;2.83;;;16.50;99.90;;;;;;5013385;28;20203;-72
2021/05/10 03:50:35;;;;;;;4.10;2.83;;;16.50;99.90;;;;;;5013262;28;20675;-71
2021/05/10 03:53:01;;;;;;;8.90;3.10;;;16.40;99.90;;;;;;5013422;28;20696;-71
2021/05/10 03:55:27;;;;;;;4.97;2.70;;;16.40;99.90;;;;;;5013279;28;20202;-71
2021/05/10 03:57:53;;;;;;;3.13;2.90;;;16.30;99.90;;;;;;5013104;28;20237;-71
2021/05/10 04:00:20;;;;;;;3.00;2.80;;;16.30;99.90;;;;;;5012976;28;20258;-71
2021/05/10 04:02:45;;;;;;;4.10;2.73;;;16.30;99.90;;;;;;5013202;28;20984;-71
2021/05/10 04:05:29;;;;;;;3.83;2.83;;;16.30;99.90;;;;;;5013153;28;20418;-72
2021/05/10 04:08:15;;;;;;;3.43;3.13;;;16.40;99.90;;;;;;5012920;28;20195;-72
2021/05/10 04:16:06;;;;;;;3.30;2.20;;;16.90;99.90;;;;;;5012462;28;20430;-72
2021/05/10 04:18:32;;;;;;;3.70;3.30;;;17.10;99.90;;;;;;5012857;28;20434;-72
2021/05/10 04:20:57;;;;;;;2.73;2.53;;;17.20;99.00;;;;;;5012755;28;20496;-72
2021/05/10 04:23:24;;;;;;;4.40;2.70;;;17.40;98.20;;;;;;5012811;28;20179;-72
2021/05/10 04:25:53;;;;;;;4.50;2.70;;;17.50;97.50;;;;;;5012801;28;20205;-72
2021/05/10 04:28:20;;;;;;;5.17;3.57;;;17.60;97.50;;;;;;5012686;28;20418;-72
2021/05/10 04:30:46;;;;;;;5.13;2.53;;;17.80;96.80;;;;;;5012509;28;20505;-72
2021/05/10 04:33:12;;;;;;;3.70;3.40;;;17.80;95.90;;;;;;5012807;28;20441;-72
2021/05/10 04:35:38;;;;;;;2.47;2.30;;;18.00;95.40;;;;;;5011185;28;20601;-72
2021/05/10 04:38:12;;;;;;;3.60;2.90;;;18.10;94.90;;;;;;5012513;28;20213;-72
2021/05/10 04:40:38;;;;;;;5.67;2.70;;;18.30;94.30;;;;;;5012237;28;20659;-72
2021/05/10 04:43:04;;;;;;;2.50;2.23;;;18.40;94.10;;;;;;5012328;28;20418;-72
2021/05/10 04:45:30;;;;;;;3.23;2.47;;;18.40;94.00;;;;;;5012261;28;20814;-72
2021/05/10 04:47:56;;;;;;;3.00;2.40;;;18.50;94.80;;;;;;5012118;28;20469;-72
2021/05/10 04:50:21;;;;;;;4.10;2.23;;;18.50;95.20;;;;;;5012362;28;20645;-72
2021/05/10 04:52:47;;;;;;;6.23;2.67;;;18.50;95.70;;;;;;5012317;28;20190;-72
2021/05/10 04:55:13;;;;;;;3.57;2.60;;;18.60;95.20;;;;;;5012802;28;20250;-72
2021/05/10 04:57:39;;;;;;;2.70;2.17;;;18.70;93.30;;;;;;5012148;28;20206;-72
2021/05/10 05:00:06;;;;;;;2.77;2.57;;;18.80;92.40;;;;;;5011928;28;20418;-72
2021/05/10 05:02:32;;;;;;;2.67;2.33;;;19.00;93.50;;;;;;5012244;28;20174;-72
2021/05/10 05:04:57;;;;;;;3.50;2.10;;;19.20;93.00;;;;;;5012297;28;20418;-72
2021/05/10 05:07:23;;;;;;;6.03;2.73;;;19.30;92.10;;;;;;5011985;28;20681;-72
2021/05/10 05:09:49;;;;;;;6.77;2.33;;;19.40;92.90;;;;;;5011897;28;20420;-72
2021/05/10 05:12:14;;;;;;;2.40;2.20;;;19.40;92.30;;;;;;5012335;28;20178;-72
2021/05/10 05:14:40;;;;;;;4.50;2.80;;;19.40;93.80;;;;;;5011826;28;20186;-72
2021/05/10 05:17:05;;;;;;;8.57;2.77;;;19.40;92.70;;;;;;5011759;28;20221;-72
2021/05/10 05:19:31;;;;;;;3.80;2.70;;;19.40;96.50;;;;;;5011677;28;20167;-72
2021/05/10 05:21:57;;;;;;;2.50;2.27;;;19.40;97.80;;;;;;5011920;28;20232;-72
2021/05/10 05:24:22;;;;;;;2.83;2.47;;;19.30;96.30;;;;;;5010449;28;20469;-72
2021/05/10 05:26:48;;;;;;;3.70;2.20;;;19.20;95.60;;;;;;5010693;28;20551;-72
2021/05/10 05:29:14;;;;;;;6.20;2.60;;;19.30;97.30;;;;;;5010122;28;20201;-72
2021/05/10 05:31:40;;;;;;;5.63;3.30;;;19.40;94.40;;;;;;5011768;28;20179;-72
2021/05/10 05:34:06;;;;;;;4.23;2.83;;;19.50;98.40;;;;;;5011599;28;20426;-72
2021/05/10 05:36:31;;;;;;;3.80;2.90;;;19.50;99.40;;;;;;5011398;28;20206;-72
2021/05/10 05:38:57;;;;;;;2.87;2.53;;;19.60;97.80;;;;;;5011382;28;20541;-72
2021/05/10 05:41:22;;;;;;;2.90;2.70;;;19.80;98.70;;;;;;5011312;28;20167;-72
2021/05/10 05:43:48;;;;;;;3.20;2.57;;;19.80;95.90;;;;;;5011708;28;20186;-72
2021/05/10 05:46:19;;;;;;;3.43;3.13;;;19.80;94.80;;;;;;5011398;28;20293;-72
2021/05/10 05:48:45;;;;;;;5.13;2.80;;;19.80;94.40;;;;;;5011247;28;20545;-72
2021/05/10 05:51:11;;;;;;;3.60;2.40;;;19.70;94.20;;;;;;5011042;28;20425;-72
2021/05/10 05:53:37;;;;;;;4.20;3.00;;;19.80;94.00;;;;;;5011208;28;20194;-72
2021/05/10 05:56:03;;;;;;;7.43;3.77;;;19.80;94.10;;;;;;5011020;28;20501;-72
2021/05/10 05:58:29;;;;;;;3.00;2.80;;;19.90;93.60;;;;;;5011108;28;20513;-72
2021/05/10 06:00:54;;;;;;;2.90;2.57;;;19.80;93.50;;;;;;5011016;28;20171;-72
2021/05/10 06:03:20;;;;;;;8.83;2.60;;;19.80;93.60;;;;;;5011280;28;20538;-72
2021/05/10 06:05:46;;;;;;;6.30;2.90;;;20.00;95.40;;;;;;5011359;28;20266;-72
2021/05/10 06:08:14;;;;;;;3.03;2.60;;;20.10;95.20;;;;;;5011063;28;20440;-72
2021/05/10 06:10:40;;;;;;;4.87;4.37;;;20.20;94.70;;;;;;5010832;28;20242;-72
2021/05/10 06:13:05;;;;;;;7.20;6.47;;;20.40;95.00;;;;;;5011266;28;20532;-72
2021/05/10 06:15:31;;;;;;;4.30;3.90;;;20.50;94.60;;;;;;5011062;28;20546;-72
2021/05/10 06:17:56;;;;;;;8.83;3.73;;;20.50;94.40;;;;;;5011028;28;20581;-72
2021/05/10 06:20:24;;;;;;;7.50;6.77;;;20.50;94.30;;;;;;5010841;28;20175;-72
2021/05/10 06:22:50;;;;;;;4.30;3.90;;;20.60;95.90;;;;;;5011050;28;20171;-72
2021/05/10 06:25:16;;;;;;;3.90;3.50;;;20.70;96.10;;;;;;5010952;28;20418;-72
2021/05/10 06:27:42;;;;;;;8.30;3.10;;;20.80;96.60;;;;;;5010789;28;20438;-72
2021/05/10 06:30:10;;;;;;;3.33;3.00;;;20.90;97.50;;;;;;5011028;28;20171;-72
2021/05/10 06:32:36;;;;;;;2.53;2.33;;;21.00;96.60;;;;;;5010739;28;20972;-72
2021/05/10 06:35:02;;;;;;;6.40;2.80;;;21.20;96.40;;;;;;5010958;28;20417;-72
2021/05/10 06:37:30;;;;;;;2.93;2.73;;;21.40;95.00;;;;;;5011995;28;20830;-72
2021/05/10 06:39:57;;;;;;;4.30;3.40;;;21.50;96.20;;;;;;5014765;28;20178;-72
2021/05/10 06:42:23;;;;;;;3.73;2.90;;;21.60;96.40;;;;;;5014959;28;20414;-72
2021/05/10 06:44:50;;;;;;;4.23;2.70;;;21.60;95.70;;;;;;5014803;28;20504;-72
2021/05/10 06:47:15;;;;;;;4.30;3.77;;;21.60;95.40;;;;;;5014874;28;20465;-72
2021/05/10 06:49:41;;;;;;;4.90;2.80;;;21.80;95.30;;;;;;5014588;28;20795;-72
2021/05/10 06:52:07;;;;;;;11.90;10.80;;;21.90;94.20;;;;;;5013805;28;20167;-72
2021/05/10 06:54:32;;;;;;;4.10;3.70;;;22.00;94.20;;;;;;5014426;28;20175;-72
2021/05/10 06:56:58;;;;;;;4.23;2.83;;;22.10;95.20;;;;;;5014291;28;20206;-72
2021/05/10 06:59:23;;;;;;;4.50;2.63;;;22.20;93.60;;;;;;5014119;28;20254;-72
2021/05/10 07:01:49;;;;;;;2.80;2.60;;;22.30;91.60;;;;;;5014665;28;20168;-73
2021/05/10 07:04:14;;;;;;;3.77;2.73;;;22.20;89.40;;;;;;5014357;28;20526;-72
2021/05/10 07:06:43;;;;;;;2.80;2.60;;;22.40;90.50;;;;;;5014093;28;20194;-72
2021/05/10 07:09:09;;;;;;;3.30;2.97;;;22.50;89.40;;;;;;5013952;28;20185;-72
2021/05/10 07:11:35;;;;;;;5.90;3.00;;;22.50;90.50;;;;;;5014162;28;20516;-72
2021/05/10 07:14:02;;;;;;;3.30;2.57;;;22.50;92.00;;;;;;5014275;28;20449;-72
2021/05/10 07:16:28;;;;;;;4.00;3.10;;;22.80;90.70;;;;;;5013924;28;20723;-72
2021/05/10 07:18:56;;;;;;;4.90;2.53;;;22.90;91.10;;;;;;5013992;28;20422;-73
2021/05/10 07:21:23;;;;;;;4.80;3.50;;;23.30;89.10;;;;;;5013781;28;20573;-73
2021/05/10 07:23:49;;;;;;;3.27;3.07;;;23.70;89.70;;;;;;5013843;28;20814;-73
2021/05/10 07:26:15;;;;;;;4.07;2.20;;;24.10;86.10;;;;;;5013760;28;20446;-73
2021/05/10 07:28:40;;;;;;;2.20;2.03;;;24.20;84.30;;;;;;5013812;28;20433;-73
2021/05/10 07:31:06;;;;;;;2.97;2.50;;;24.30;82.80;;;;;;5012187;28;20178;-72
2021/05/10 07:33:31;;;;;;;4.43;3.47;;;24.40;82.40;;;;;;5013651;28;20181;-73
2021/05/10 07:35:57;;;;;;;4.13;2.23;;;24.30;82.50;;;;;;5013517;28;20554;-73
2021/05/10 07:38:23;;;;;;;3.73;2.37;;;24.30;82.50;;;;;;5013673;28;20167;-73
2021/05/10 07:40:48;;;;;;;3.00;2.80;;;24.40;80.90;;;;;;5013314;28;20250;-73
2021/05/10 07:43:14;;;;;;;3.93;2.80;;;24.50;82.70;;;;;;5013627;28;20171;-73
2021/05/10 07:45:39;;;;;;;11.00;2.83;;;25.20;83.50;;;;;;5013260;28;20171;-73
2021/05/10 07:48:05;;;;;;;5.33;2.80;;;25.40;80.80;;;;;;5013782;28;20253;-73
2021/05/10 07:50:31;;;;;;;3.43;3.10;;;25.80;79.40;;;;;;5012085;28;20591;-73
2021/05/10 07:52:57;;;;;;;2.63;2.43;;;26.20;78.20;;;;;;5013351;28;20201;-73
2021/05/10 07:55:23;;;;;;;10.13;7.13;;;26.50;75.70;;;;;;5013312;28;20433;-73
2021/05/10 07:57:49;;;;;;;4.93;4.53;;;26.70;75.90;;;;;;5013239;28;20461;-73
2021/05/10 08:00:19;;;;;;;7.23;2.63;;;26.70;73.10;;;;;;5013384;28;20458;-73
2021/05/10 08:02:47;;;;;;;5.77;2.50;;;26.40;74.20;;;;;;5013302;28;20414;-73
2021/05/10 08:05:13;;;;;;;4.00;2.70;;;25.70;75.50;;;;;;5013121;28;20418;-73
2021/05/10 08:07:39;;;;;;;3.53;3.23;;;25.10;77.00;;;;;;5013142;28;20544;-73
2021/05/10 08:10:06;;;;;;;4.20;2.43;;;24.60;77.80;;;;;;5012707;28;20509;-73
2021/05/10 08:12:32;;;;;;;8.33;3.90;;;24.60;79.20;;;;;;5012872;28;20484;-73
2021/05/10 08:14:57;;;;;;;4.10;3.40;;;25.00;80.10;;;;;;5012991;28;20422;-73
2021/05/10 08:17:24;;;;;;;3.87;2.60;;;25.50;78.40;;;;;;5012944;28;20485;-73
2021/05/10 08:19:50;;;;;;;5.77;2.83;;;26.40;77.80;;;;;;5011558;28;20359;-73
2021/05/10 08:22:15;;;;;;;3.13;2.77;;;27.20;74.80;;;;;;5013129;28;20460;-74
2021/05/10 08:24:41;;;;;;;5.00;3.77;;;27.80;72.90;;;;;;5013498;28;20160;-74
2021/05/10 08:27:07;;;;;;;4.53;2.90;;;28.00;71.20;;;;;;5012927;28;20187;-73
2021/05/10 08:29:35;;;;;;;7.70;3.33;;;27.70;71.70;;;;;;5012455;28;20237;-73
2021/05/10 08:32:01;;;;;;;4.93;3.07;;;27.20;73.10;;;;;;5012732;28;20183;-73
2021/05/10 08:34:27;;;;;;;4.40;2.80;;;26.80;73.60;;;;;;5012886;28;20759;-73
2021/05/10 08:36:54;;;;;;;3.23;2.93;;;26.30;76.20;;;;;;5012693;28;20457;-73
2021/05/10 08:39:20;;;;;;;3.67;2.87;;;26.20;76.30;;;;;;5012371;28;20163;-73
2021/05/10 08:41:46;;;;;;;4.60;2.50;;;25.70;74.60;;;;;;5012692;28;20422;-74
2021/05/10 08:44:12;;;;;;;7.97;4.23;;;25.30;77.50;;;;;;5011189;28;20954;-73
2021/05/10 08:46:39;;;;;;;2.63;2.23;;;25.10;77.50;;;;;;5012500;28;20449;-73
2021/05/10 08:49:06;;;;;;;7.67;2.97;;;25.20;77.60;;;;;;5012130;28;20170;-73
2021/05/10 08:51:34;;;;;;;4.50;2.70;;;25.30;78.10;;;;;;5012274;28;20426;-73
2021/05/10 08:54:00;;;;;;;5.13;4.40;;;25.40;77.10;;;;;;5012265;28;20851;-73
2021/05/10 08:56:26;;;;;;;4.37;2.83;;;25.50;78.20;;;;;;5010860;28;20504;-73
2021/05/10 08:58:51;;;;;;;7.10;3.20;;;25.80;77.30;;;;;;5012246;28;20418;-73
2021/05/10 09:01:21;;;;;;;3.77;3.27;;;25.80;78.10;;;;;;5012184;28;20229;-73
2021/05/10 09:03:49;;;;;;;3.87;2.70;;;25.60;78.20;;;;;;5011988;28;20170;-73
2021/05/10 09:06:21;;;;;;;5.47;3.33;;;25.40;78.80;;;;;;5011869;28;20916;-73
2021/05/10 09:08:48;;;;;;;5.80;3.47;;;25.40;78.90;;;;;;5012210;28;20599;-73
2021/05/10 09:11:20;;;;;;;9.30;3.80;;;25.70;79.00;;;;;;5011666;28;20978;-73
2021/05/10 09:13:58;;;;;;;6.10;3.93;;;25.70;78.40;;;;;;5011747;28;20493;-73
2021/05/10 09:16:24;;;;;;;9.37;3.87;;;26.00;78.40;;;;;;5011667;28;20883;-73
2021/05/10 09:18:58;;;;;;;11.20;4.10;;;26.20;77.70;;;;;;5011727;28;20420;-73
2021/05/10 09:21:29;;;;;;;4.67;3.80;;;25.90;77.60;;;;;;5011690;28;20405;-73
2021/05/10 09:23:56;;;;;;;5.17;3.13;;;25.70;77.70;;;;;;5011733;28;20789;-73
2021/05/10 09:26:28;;;;;;;7.43;2.87;;;25.90;77.80;;;;;;5011565;28;20445;-73
2021/05/10 09:28:54;;;;;;;6.00;3.00;;;25.80;78.80;;;;;;5011696;28;20686;-73
2021/05/10 09:31:20;;;;;;;8.00;3.23;;;26.20;77.90;;;;;;5011485;28;20422;-73
2021/05/10 09:33:46;;;;;;;7.30;2.60;;;26.70;77.50;;;;;;5011561;28;20268;-74
2021/05/10 09:36:32;;;;;;;3.00;2.70;;;27.10;74.60;;;;;;5011337;28;20294;-73
2021/05/10 09:38:58;;;;;;;5.63;3.70;;;27.20;74.90;;;;;;5011271;28;20489;-74
2021/05/10 09:41:23;;;;;;;9.13;4.13;;;27.50;74.30;;;;;;5011371;28;20409;-73
2021/05/10 09:43:59;;;;;;;3.53;2.93;;;27.90;74.30;;;;;;5011447;28;20414;-73
2021/05/10 09:46:38;;;;;;;4.27;3.10;;;28.50;73.10;;;;;;5011199;28;20679;-73
2021/05/10 09:49:03;;;;;;;10.17;4.07;;;29.00;70.90;;;;;;5011229;28;20420;-74
2021/05/10 09:51:29;;;;;;;5.00;3.07;;;29.40;69.60;;;;;;5011326;28;20719;-74
2021/05/10 09:53:57;;;;;;;3.00;2.70;;;29.40;68.70;;;;;;5011372;28;20266;-74
2021/05/10 09:58:57;;;;;;;6.17;3.00;;;29.80;66.20;;;;;;5011513;28;20826;-73
2021/05/10 10:01:24;;;;;;;3.23;3.00;;;29.80;66.00;;;;;;5011435;28;20899;-73
2021/05/10 10:03:58;;;;;;;9.60;3.53;;;30.00;64.30;;;;;;5011625;28;20912;-73
2021/05/10 10:06:23;;;;;;;6.17;2.93;;;30.50;63.10;;;;;;5011446;28;20450;-73
2021/05/10 10:08:50;;;;;;;3.43;1.93;;;30.40;62.10;;;;;;5011397;28;20436;-73
2021/05/10 10:11:22;;;;;;;4.70;2.27;;;29.70;62.00;;;;;;5011034;28;20545;-73
2021/05/10 10:13:50;;;;;;;4.30;2.10;;;28.90;62.70;;;;;;5010845;28;20437;-73
2021/05/10 10:16:18;;;;;;;3.93;2.37;;;28.50;63.90;;;;;;5011011;28;20860;-73
2021/05/10 10:18:44;;;;;;;2.03;1.83;;;28.10;64.20;;;;;;5011017;28;20426;-73
2021/05/10 10:21:11;;;;;;;7.70;2.43;;;28.40;64.10;;;;;;5010949;28;20421;-73
2021/05/10 10:23:37;;;;;;;2.03;1.67;;;28.70;63.00;;;;;;5011323;28;20531;-73
2021/05/10 10:26:06;;;;;;;4.57;1.73;;;29.20;61.70;;;;;;5010991;28;20901;-73
2021/05/10 10:28:34;;;;;;;2.30;1.57;;;29.10;61.00;;;;;;5011130;28;20414;-73
2021/05/10 10:31:02;;;;;;;3.17;1.70;;;29.40;60.00;;;;;;5010600;28;20429;-73
2021/05/10 10:33:39;;;;;;;3.73;1.50;;;29.20;60.10;;;;;;5010922;28;20778;-73
2021/05/10 10:36:13;;;;;;;2.67;1.63;;;29.10;60.30;;;;;;5009638;28;20425;-73
2021/05/10 10:38:39;;;;;;;2.00;1.67;;;30.00;59.50;;;;;;5011796;28;20493;-73
2021/05/10 10:41:22;;;;;;;1.77;1.30;;;30.90;57.60;;;;;;5010196;28;20556;-73
2021/05/10 10:43:49;;;;;;;2.90;1.50;;;30.60;57.10;;;;;;5009661;28;20250;-73
2021/05/10 10:46:20;;;;;;;2.50;1.60;;;30.90;56.70;;;;;;5010776;28;20951;-73
2021/05/10 10:48:47;;;;;;;2.40;1.63;;;30.90;56.70;;;;;;5009873;28;20775;-73
2021/05/10 10:51:14;;;;;;;3.90;1.73;;;29.90;57.40;;;;;;5010634;28;20425;-73
2021/05/10 10:53:50;;;;;;;3.47;1.60;;;28.90;58.00;;;;;;5010984;28;20463;-74
2021/05/10 10:56:16;;;;;;;1.70;1.60;;;28.40;59.20;;;;;;5011930;28;20446;-73
2021/05/10 10:58:44;;;;;;;3.33;1.47;;;27.50;60.50;;;;;;5011391;28;20497;-73
2021/05/10 11:01:19;;;;;;;2.40;2.07;;;27.00;61.70;;;;;;5011666;28;20181;-73
2021/05/10 11:03:46;;;;;;;3.13;1.90;;;26.60;62.70;;;;;;5011582;28;20475;-73
2021/05/10 11:06:11;;;;;;;7.80;2.20;;;26.60;63.30;;;;;;5009147;28;20536;-73
2021/05/10 11:08:43;;;;;;;2.40;1.60;;;26.40;65.10;;;;;;5010508;28;20496;-73
2021/05/10 11:11:33;;;;;;;3.20;1.63;;;26.30;65.70;;;;;;5010269;28;20258;-73
2021/05/10 11:14:00;;;;;;;2.33;1.40;;;25.80;66.70;;;;;;5010383;28;20508;-72
2021/05/10 11:16:45;;;;;;;4.27;2.87;;;25.30;68.10;;;;;;5009215;28;20908;-73
2021/05/10 11:19:35;;;;;;;5.03;2.57;;;25.10;68.70;;;;;;5010104;28;20500;-73
2021/05/10 11:22:26;;;;;;;4.67;2.40;;;24.90;69.50;;;;;;5010494;28;20907;-73
2021/05/10 11:24:51;;;;;;;12.40;2.20;;;24.80;70.00;;;;;;5010244;28;20433;-73
2021/05/10 11:27:25;;;;;;;2.80;1.77;;;24.70;70.50;;;;;;5013698;28;20433;-73
2021/05/10 11:29:51;;;;;;;1.83;1.63;;;24.20;71.20;;;;;;5013625;28;20309;-73
2021/05/10 11:32:20;;;;;;;4.97;2.10;;;24.20;72.70;;;;;;5013991;28;20483;-73
2021/05/10 11:34:46;;;;;;;2.53;1.57;;;24.10;73.10;;;;;;5012469;28;20253;-73
2021/05/10 11:37:12;;;;;;;3.17;2.90;;;23.80;72.90;;;;;;5013555;28;20493;-72
2021/05/10 11:39:40;;;;;;;2.10;1.17;;;23.60;73.20;;;;;;5013445;28;20197;-73
2021/05/10 11:42:12;;;;;;;1.60;1.50;;;23.60;74.00;;;;;;5013563;28;20784;-73
2021/05/10 11:44:39;;;;;;;3.47;1.40;;;23.50;74.30;;;;;;5013669;28;20978;-73
2021/05/10 11:47:07;;;;;;;2.00;1.90;;;23.30;75.10;;;;;;5013348;28;20458;-73
2021/05/10 11:49:38;;;;;;;2.80;2.37;;;23.20;74.70;;;;;;5013274;28;20429;-73
2021/05/10 11:52:12;;;;;;;1.97;1.87;;;23.20;74.40;;;;;;5013473;28;20962;-73
2021/05/10 11:54:43;;;;;;;2.87;1.50;;;23.20;74.60;;;;;;5013454;28;20421;-73
2021/05/10 11:57:10;;;;;;;1.27;1.17;;;23.40;74.30;;;;;;5013227;28;20468;-73
2021/05/10 12:02:26;;;;;;;4.80;2.50;;;23.10;73.90;;;;;;5013645;28;20428;-72
2021/05/10 12:04:59;;;;;;;5.80;5.10;;;23.00;74.40;;;;;;5013185;28;20814;-73
2021/05/10 12:07:27;;;;;;;3.93;1.90;;;22.90;74.60;;;;;;5013038;28;20495;-73
2021/05/10 12:10:02;;;;;;;2.30;2.13;;;22.90;75.30;;;;;;5013227;28;20890;-73
2021/05/10 12:12:45;;;;;;;3.20;1.77;;;23.10;74.80;;;;;;5015051;28;20421;-73
2021/05/10 12:15:23;;;;;;;1.43;1.43;;;23.00;75.10;;;;;;5015077;28;20799;-73
2021/05/10 12:17:51;;;;;;;5.07;2.17;;;23.10;75.60;;;;;;5014838;28;20457;-73
2021/05/10 12:20:27;;;;;;;2.00;1.40;;;23.10;75.40;;;;;;5015097;28;20552;-73
2021/05/10 12:23:00;;;;;;;3.10;1.80;;;23.10;75.90;;;;;;5015236;28;20489;-73
2021/05/10 12:25:36;;;;;;;1.80;1.70;;;23.00;76.70;;;;;;5014415;28;20425;-73
2021/05/10 12:28:13;;;;;;;1.63;1.53;;;23.20;76.40;;;;;;5013918;28;20513;-73
2021/05/10 12:30:45;;;;;;;4.60;1.63;;;22.90;76.30;;;;;;5013181;28;20417;-73
2021/05/10 12:33:17;;;;;;;2.33;1.40;;;22.90;76.50;;;;;;5013372;28;20858;-72
2021/05/10 12:35:44;;;;;;;1.60;1.50;;;22.80;76.70;;;;;;5010956;28;20426;-72
2021/05/10 12:38:10;;;;;;;1.47;1.37;;;22.90;77.30;;;;;;5012310;28;20461;-73
2021/05/10 12:40:43;;;;;;;2.13;1.93;;;22.90;77.40;;;;;;5012270;28;20437;-73
2021/05/10 12:43:17;;;;;;;2.37;1.50;;;22.80;77.20;;;;;;5012482;28;20471;-72
2021/05/10 12:45:55;;;;;;;2.27;1.50;;;22.80;77.50;;;;;;5012284;28;20418;-72
2021/05/10 12:48:23;;;;;;;2.60;1.30;;;22.60;78.00;;;;;;5012367;28;20425;-72
2021/05/10 12:50:50;;;;;;;3.23;1.40;;;22.50;77.80;;;;;;5012419;28;20425;-73
2021/05/10 12:53:28;;;;;;;1.30;1.20;;;22.50;78.50;;;;;;5012168;28;20425;-73
2021/05/10 12:56:00;;;;;;;8.03;1.93;;;22.40;78.40;;;;;;5012246;28;20424;-73
2021/05/10 12:58:25;;;;;;;2.80;1.63;;;22.50;78.50;;;;;;5012179;28;20472;-73